Time;durP1;ratioP1;P1;durP2;ratioP2;P2;SDS_P1;SDS_P2;PMS_P1;PMS_P2;Temp;Humidity;BMP_temperature;BMP_pressure;BME280_temperature;BME280_humidity;BME280_pressure;Samples;Min_cycle;Max_cycle;Signal;HPM_P1;HPM_P2
2021/04/06 00:00:54;;;;;;;4.38;0.80;;;;;;;-0.37;76.49;99691.75;3587538;39;20060;-48
2021/04/06 00:03:25;;;;;;;5.55;1.00;;;;;;;-0.40;76.31;99697.50;3588183;39;20346;-46
2021/04/06 00:05:58;;;;;;;4.07;1.02;;;;;;;-0.45;76.12;99700.56;3587080;39;20092;-50
2021/04/06 00:08:27;;;;;;;6.43;1.15;;;;;;;-0.42;76.69;99703.22;3587608;39;20062;-48
2021/04/06 00:10:57;;;;;;;4.70;0.90;;;;;;;-0.47;76.57;99707.16;3587420;39;20052;-48
2021/04/06 00:13:29;;;;;;;5.05;1.20;;;;;;;-0.60;76.74;99706.50;3588071;39;20060;-51
2021/04/06 00:15:56;;;;;;;5.65;1.08;;;;;;;-0.65;77.88;99709.53;3587589;39;20068;-47
2021/04/06 00:18:25;;;;;;;4.15;0.95;;;;;;;-0.66;78.00;99705.31;3587938;39;20103;-46
2021/04/06 00:20:57;;;;;;;5.03;0.95;;;;;;;-0.56;77.75;99708.38;3587319;39;20052;-45
2021/04/06 00:23:26;;;;;;;7.88;0.95;;;;;;;-0.61;78.21;99709.78;3587966;39;20059;-48
2021/04/06 00:25:54;;;;;;;4.65;1.00;;;;;;;-0.63;78.65;99705.47;3587268;39;20052;-46
2021/04/06 00:28:25;;;;;;;6.93;1.10;;;;;;;-0.64;78.05;99703.75;3588109;39;20096;-53
2021/04/06 00:30:54;;;;;;;6.47;1.23;;;;;;;-0.81;79.22;99702.81;3587429;39;20048;-46
2021/04/06 00:33:42;;;;;;;7.00;1.73;;;;;;;-0.75;79.20;99705.66;3588337;39;20084;-44
2021/04/06 00:36:30;;;;;;;6.15;1.70;;;;;;;-0.73;78.84;99711.66;3588306;39;20500;-51
2021/04/06 00:39:04;;;;;;;4.35;0.88;;;;;;;-0.74;78.87;99714.06;3587354;39;20501;-47
2021/04/06 00:41:32;;;;;;;4.15;1.00;;;;;;;-0.68;78.86;99707.75;3589908;39;20054;-44
2021/04/06 00:44:09;;;;;;;6.00;1.00;;;;;;;-0.80;79.12;99717.13;3587458;39;20088;-47
2021/04/06 00:46:37;;;;;;;5.07;1.48;;;;;;;-0.83;80.28;99717.84;3589325;39;20056;-49
2021/04/06 00:49:04;;;;;;;5.60;1.30;;;;;;;-0.75;79.54;99727.41;3587788;39;20065;-46
2021/04/06 00:51:38;;;;;;;5.53;1.23;;;;;;;-0.76;80.20;99729.06;3587393;39;20078;-44
2021/04/06 00:54:07;;;;;;;6.30;1.10;;;;;;;-0.80;79.49;99727.16;3587910;39;20055;-49
2021/04/06 00:56:37;;;;;;;6.60;1.40;;;;;;;-0.93;80.61;99733.16;3587038;39;20327;-46
2021/04/06 00:59:06;;;;;;;6.20;0.98;;;;;;;-0.80;80.23;99734.72;3590744;39;20059;-48
2021/04/06 01:01:36;;;;;;;8.40;1.17;;;;;;;-0.90;80.72;99732.47;3587127;39;20054;-49
2021/04/06 01:04:10;;;;;;;3.67;1.25;;;;;;;-0.90;80.91;99737.50;3587706;39;20064;-45
2021/04/06 01:07:01;;;;;;;6.88;1.10;;;;;;;-0.90;81.05;99740.88;3588924;39;20029;-49
2021/04/06 01:09:34;;;;;;;8.07;1.27;;;;;;;-0.97;81.58;99741.34;3586910;39;20417;-50
2021/04/06 01:12:03;;;;;;;7.00;1.45;;;;;;;-1.01;82.20;99739.44;3587606;39;20085;-47
2021/04/06 01:14:34;;;;;;;5.75;1.50;;;;;;;-1.14;82.28;99734.50;3587085;39;20050;-47
2021/04/06 01:17:03;;;;;;;8.02;1.40;;;;;;;-1.08;82.61;99744.88;3587409;39;20063;-45
2021/04/06 01:19:31;;;;;;;6.72;1.60;;;;;;;-1.00;82.71;99748.69;3587253;39;20458;-45
2021/04/06 01:21:59;;;;;;;7.22;1.25;;;;;;;-0.98;81.74;99743.75;3587209;39;20137;-44
2021/04/06 01:24:28;;;;;;;3.63;0.95;;;;;;;-0.94;82.34;99756.56;3587204;39;20079;-49
2021/04/06 01:26:56;;;;;;;6.88;1.48;;;;;;;-1.06;83.18;99743.31;3586694;39;20116;-50
2021/04/06 01:29:26;;;;;;;4.38;1.30;;;;;;;-1.06;82.86;99745.84;3587282;39;20051;-47
2021/04/06 01:31:55;;;;;;;7.80;1.50;;;;;;;-0.96;82.59;99743.06;3586712;39;20071;-47
2021/04/06 01:34:23;;;;;;;4.80;1.48;;;;;;;-1.01;82.93;99746.09;3586491;39;20446;-50
2021/04/06 01:36:54;;;;;;;2.40;1.20;;;;;;;-1.11;84.04;99753.13;3586666;39;20060;-48
2021/04/06 01:39:23;;;;;;;7.55;1.20;;;;;;;-0.91;83.31;99759.25;3590331;39;20054;-48
2021/04/06 01:41:56;;;;;;;7.40;1.73;;;;;;;-0.90;83.58;99755.94;3586690;39;20065;-45
2021/04/06 01:44:23;;;;;;;2.53;1.00;;;;;;;-0.87;83.21;99748.59;3588415;39;20056;-50
2021/04/06 01:46:50;;;;;;;5.15;2.03;;;;;;;-1.04;84.00;99746.78;3591784;39;20075;-54
2021/04/06 01:49:18;;;;;;;4.57;1.50;;;;;;;-0.85;83.38;99751.19;3593299;39;20088;-52
2021/04/06 01:51:46;;;;;;;6.90;1.52;;;;;;;-0.84;83.11;99756.28;3587888;39;20092;-52
2021/04/06 01:54:14;;;;;;;5.45;1.30;;;;;;;-0.82;83.27;99762.28;3588996;39;20483;-48
2021/04/06 01:56:52;;;;;;;7.47;1.75;;;;;;;-1.09;84.00;99754.06;3586552;39;20052;-46
2021/04/06 01:59:28;;;;;;;5.68;1.50;;;;;;;-1.02;84.13;99755.25;3586267;39;20104;-44
2021/04/06 02:01:58;;;;;;;10.23;1.85;;;;;;;-1.12;84.42;99763.91;3586855;39;20097;-46
2021/04/06 02:04:26;;;;;;;5.30;1.17;;;;;;;-0.85;83.49;99759.59;3587028;39;20056;-45
2021/04/06 02:06:54;;;;;;;7.47;1.60;;;;;;;-0.87;83.83;99758.66;3586615;39;20077;-49
2021/04/06 02:09:21;;;;;;;5.40;1.50;;;;;;;-1.02;83.96;99767.81;3589565;39;20460;-47
2021/04/06 02:11:49;;;;;;;4.55;1.30;;;;;;;-0.90;84.00;99760.13;3586369;39;20108;-44
2021/04/06 02:14:18;;;;;;;5.65;1.50;;;;;;;-1.05;84.89;99765.16;3586348;39;20114;-45
2021/04/06 02:16:49;;;;;;;4.32;1.25;;;;;;;-0.97;84.65;99763.03;3586553;39;20088;-48
2021/04/06 02:19:36;;;;;;;5.85;1.95;;;;;;;-0.86;84.44;99764.53;3585918;39;20071;-44
2021/04/06 02:22:06;;;;;;;5.25;1.55;;;;;;;-1.04;84.69;99775.28;3587183;39;20081;-49
2021/04/06 02:24:40;;;;;;;11.07;2.08;;;;;;;-0.89;84.72;99775.25;3586372;39;20067;-50
2021/04/06 02:27:17;;;;;;;6.90;1.63;;;;;;;-0.94;84.90;99771.63;3587015;39;20147;-48
2021/04/06 02:29:46;;;;;;;2.60;1.27;;;;;;;-0.94;84.63;99774.16;3585860;39;20395;-47
2021/04/06 02:32:15;;;;;;;5.53;1.73;;;;;;;-0.86;84.81;99767.03;3589098;39;20052;-46
2021/04/06 02:34:47;;;;;;;5.05;1.60;;;;;;;-0.94;84.62;99776.66;3588888;39;20088;-47
2021/04/06 02:37:18;;;;;;;3.78;1.83;;;;;;;-1.02;85.13;99770.31;3586436;39;20033;-44
2021/04/06 02:39:46;;;;;;;7.90;1.70;;;;;;;-1.08;85.65;99772.50;3582299;39;20103;-48
2021/04/06 02:42:27;;;;;;;9.32;2.13;;;;;;;-1.12;85.83;99768.94;3595844;39;20056;-45
2021/04/06 02:44:56;;;;;;;5.55;2.03;;;;;;;-1.21;86.11;99763.41;3586396;39;20092;-48
2021/04/06 02:47:25;;;;;;;6.38;2.00;;;;;;;-1.05;86.02;99767.66;3587161;39;20776;-50
2021/04/06 02:49:52;;;;;;;7.20;2.40;;;;;;;-1.00;85.41;99768.78;3589854;39;20064;-46
2021/04/06 02:52:19;;;;;;;4.10;2.10;;;;;;;-1.10;86.06;99772.44;3588558;39;20134;-45
2021/04/06 02:54:45;;;;;;;6.65;2.10;;;;;;;-1.07;86.92;99776.75;3585639;39;20056;-48
2021/04/06 02:57:25;;;;;;;6.63;2.17;;;;;;;-1.07;86.10;99777.59;3587546;39;20076;-48
2021/04/06 02:59:53;;;;;;;6.75;2.00;;;;;;;-1.13;86.93;99782.28;3586382;39;20080;-47
2021/04/06 03:02:20;;;;;;;5.75;2.58;;;;;;;-1.05;86.39;99780.22;3587912;39;20453;-44
2021/04/06 03:04:48;;;;;;;4.40;1.60;;;;;;;-0.99;85.62;99784.72;3589033;39;20060;-49
2021/04/06 03:07:20;;;;;;;5.93;2.35;;;;;;;-1.05;86.55;99766.00;3586166;39;20064;-48
2021/04/06 03:09:58;;;;;;;5.60;2.50;;;;;;;-1.08;86.14;99773.38;3585935;39;20076;-47
2021/04/06 03:12:31;;;;;;;6.72;2.25;;;;;;;-1.14;86.02;99773.03;3586159;39;20056;-45
2021/04/06 03:15:03;;;;;;;8.27;2.38;;;;;;;-1.14;86.86;99772.16;3586461;39;20063;-51
2021/04/06 03:17:48;;;;;;;7.88;2.53;;;;;;;-1.09;85.76;99774.16;3592507;39;20457;-46
2021/04/06 03:20:17;;;;;;;6.00;2.22;;;;;;;-1.11;86.18;99780.75;3589682;39;20091;-46
2021/04/06 03:22:45;;;;;;;3.17;1.75;;;;;;;-1.16;86.68;99776.22;3588999;39;20071;-48
2021/04/06 03:25:13;;;;;;;8.88;2.45;;;;;;;-1.19;86.98;99776.06;3587135;39;20428;-52
2021/04/06 03:27:44;;;;;;;4.25;1.85;;;;;;;-1.19;86.51;99766.00;3585789;39;20071;-46
2021/04/06 03:30:11;;;;;;;3.42;2.17;;;;;;;-1.30;87.31;99761.22;3588060;39;20055;-48
2021/04/06 03:32:39;;;;;;;6.65;2.40;;;;;;;-1.21;87.29;99762.53;3587321;39;20056;-47
2021/04/06 03:35:07;;;;;;;7.28;2.35;;;;;;;-1.18;87.33;99760.22;3588576;39;20104;-48
2021/04/06 03:37:35;;;;;;;5.07;2.33;;;;;;;-1.28;87.06;99763.84;3587637;39;20094;-47
2021/04/06 03:40:04;;;;;;;5.90;2.08;;;;;;;-1.31;87.54;99758.63;3588031;39;20045;-47
2021/04/06 03:42:30;;;;;;;12.32;2.67;;;;;;;-1.39;87.99;99764.84;3587570;39;20480;-47
2021/04/06 03:45:09;;;;;;;8.77;2.33;;;;;;;-1.42;88.57;99770.56;3587812;39;20142;-48
2021/04/06 03:47:51;;;;;;;3.97;2.00;;;;;;;-1.28;87.68;99763.84;3589533;39;20053;-47
2021/04/06 03:50:51;;;;;;;6.72;2.20;;;;;;;-1.56;88.33;99768.91;3587828;39;20048;-50
2021/04/06 03:53:20;;;;;;;4.25;1.80;;;;;;;-1.35;88.44;99766.75;3579746;39;20068;-49
2021/04/06 03:56:02;;;;;;;6.45;2.20;;;;;;;-1.43;88.55;99771.34;3587091;39;20107;-44
2021/04/06 03:58:33;;;;;;;5.97;2.90;;;;;;;-1.47;87.66;99771.94;3587172;39;20063;-50
2021/04/06 04:01:00;;;;;;;7.25;3.90;;;;;;;-1.53;88.51;99774.09;3588278;39;20052;-47
2021/04/06 04:03:27;;;;;;;9.38;2.08;;;;;;;-1.54;88.36;99762.31;3588168;39;20048;-49
2021/04/06 04:05:53;;;;;;;6.30;2.50;;;;;;;-1.49;88.73;99765.09;3587853;39;20088;-47
2021/04/06 04:08:20;;;;;;;6.68;2.10;;;;;;;-1.49;87.88;99767.59;3592002;39;20066;-48
2021/04/06 04:10:49;;;;;;;5.45;2.40;;;;;;;-1.58;88.65;99758.75;3589298;39;20064;-46
2021/04/06 04:13:16;;;;;;;5.32;2.47;;;;;;;-1.62;88.97;99764.41;3588739;39;20059;-47
2021/04/06 04:15:42;;;;;;;8.57;4.15;;;;;;;-1.66;88.95;99761.63;3586854;39;20065;-50
2021/04/06 04:18:09;;;;;;;4.93;2.63;;;;;;;-1.79;89.11;99755.00;3589069;39;20055;-50
2021/04/06 04:20:36;;;;;;;5.63;2.55;;;;;;;-1.84;89.62;99759.75;3589791;39;20086;-47
2021/04/06 04:23:02;;;;;;;5.97;2.53;;;;;;;-1.80;89.57;99758.28;3588184;39;20050;-48
2021/04/06 04:25:29;;;;;;;7.63;3.17;;;;;;;-1.82;89.46;99759.81;3587496;39;20109;-46
2021/04/06 04:27:55;;;;;;;7.05;3.13;;;;;;;-1.81;88.98;99754.03;3587624;39;20089;-44
2021/04/06 04:30:39;;;;;;;4.20;2.47;;;;;;;-1.87;88.96;99757.03;3588340;39;20081;-46
2021/04/06 04:33:08;;;;;;;8.15;2.40;;;;;;;-1.84;89.47;99761.41;3588056;39;20043;-47
2021/04/06 04:35:35;;;;;;;4.78;2.30;;;;;;;-1.99;89.54;99757.94;3586850;39;20073;-52
2021/04/06 04:38:02;;;;;;;6.45;2.47;;;;;;;-1.78;89.23;99754.22;3588037;39;20061;-48
2021/04/06 04:40:29;;;;;;;7.75;2.22;;;;;;;-1.81;88.97;99759.03;3590946;39;20052;-45
2021/04/06 04:42:56;;;;;;;6.30;2.03;;;;;;;-1.79;88.67;99757.50;3593569;39;20456;-51
2021/04/06 04:45:24;;;;;;;8.00;2.80;;;;;;;-1.90;88.63;99759.34;3592341;39;20100;-46
2021/04/06 04:47:51;;;;;;;4.10;1.90;;;;;;;-1.78;88.90;99761.75;3586567;39;20064;-48
2021/04/06 04:50:22;;;;;;;10.55;2.80;;;;;;;-1.80;88.75;99766.69;3588528;39;20803;-48
2021/04/06 04:52:50;;;;;;;5.90;2.67;;;;;;;-1.86;88.64;99762.94;3587104;39;20052;-47
2021/04/06 04:55:19;;;;;;;8.30;2.17;;;;;;;-1.56;87.73;99761.38;3588199;39;20051;-42
2021/04/06 04:57:46;;;;;;;5.18;1.85;;;;;;;-1.49;87.15;99752.53;3586193;39;20064;-46
2021/04/06 05:00:15;;;;;;;9.20;2.67;;;;;;;-1.43;86.57;99748.75;3588347;39;20356;-41
2021/04/06 05:02:41;;;;;;;9.25;2.05;;;;;;;-1.42;86.47;99745.47;3588578;39;20059;-43
2021/04/06 05:05:10;;;;;;;3.22;1.83;;;;;;;-1.43;86.25;99737.81;3588759;39;20056;-47
2021/04/06 05:07:38;;;;;;;5.82;2.35;;;;;;;-1.53;86.31;99731.41;3589199;39;20092;-43
2021/04/06 05:10:06;;;;;;;3.83;1.77;;;;;;;-1.45;85.67;99729.34;3588076;39;20053;-47
2021/04/06 05:12:34;;;;;;;4.05;1.77;;;;;;;-1.44;85.51;99723.53;3590048;39;20049;-45
2021/04/06 05:15:02;;;;;;;5.10;1.42;;;;;;;-1.39;85.22;99733.06;3592367;39;20549;-47
2021/04/06 05:17:29;;;;;;;8.30;2.10;;;;;;;-1.38;85.57;99736.47;3592322;39;20478;-47
2021/04/06 05:19:56;;;;;;;5.68;2.25;;;;;;;-1.32;84.90;99739.31;3591610;39;20052;-47
2021/04/06 05:22:24;;;;;;;7.63;2.50;;;;;;;-1.46;85.44;99746.06;3591289;39;20491;-47
2021/04/06 05:24:51;;;;;;;6.65;2.70;;;;;;;-1.33;85.32;99757.69;3593040;39;20067;-43
2021/04/06 05:27:18;;;;;;;3.42;1.45;;;;;;;-1.20;84.58;99754.22;3591937;39;20096;-48
2021/04/06 05:29:45;;;;;;;9.30;3.10;;;;;;;-1.26;84.23;99763.91;3587258;39;20051;-46
2021/04/06 05:32:12;;;;;;;6.97;3.05;;;;;;;-1.25;83.93;99755.59;3588339;39;20425;-47
2021/04/06 05:34:39;;;;;;;7.70;2.75;;;;;;;-1.26;84.44;99761.41;3584880;39;20189;-45
2021/04/06 05:37:05;;;;;;;3.17;2.08;;;;;;;-1.17;83.75;99760.28;3587422;39;20049;-48
2021/04/06 05:39:32;;;;;;;5.32;2.95;;;;;;;-1.13;83.89;99758.81;3588556;39;20087;-45
2021/04/06 05:41:59;;;;;;;4.90;2.30;;;;;;;-1.06;83.60;99754.25;3589868;39;20075;-46
2021/04/06 05:44:27;;;;;;;6.82;2.78;;;;;;;-0.92;83.17;99759.19;3591376;39;20048;-47
2021/04/06 05:46:57;;;;;;;4.60;2.15;;;;;;;-0.87;83.20;99756.13;3588452;39;20107;-45
2021/04/06 05:49:26;;;;;;;9.05;2.33;;;;;;;-0.78;82.31;99753.28;3589801;39;20056;-47
2021/04/06 05:51:54;;;;;;;4.57;1.90;;;;;;;-0.86;82.55;99760.38;3591577;39;20067;-47
2021/04/06 05:54:23;;;;;;;4.65;2.58;;;;;;;-0.72;81.90;99756.09;3592594;39;20048;-50
2021/04/06 05:56:50;;;;;;;5.70;1.83;;;;;;;-0.63;81.89;99759.13;3589596;39;20085;-47
2021/04/06 05:59:16;;;;;;;4.53;2.20;;;;;;;-0.74;81.99;99751.75;3587866;39;20051;-45
2021/04/06 06:01:45;;;;;;;3.83;1.85;;;;;;;-0.49;81.00;99749.81;3589193;39;20123;-51
2021/04/06 06:04:14;;;;;;;4.85;2.10;;;;;;;-0.51;81.11;99748.84;3590180;39;20111;-47
2021/04/06 06:06:41;;;;;;;5.38;1.95;;;;;;;-0.31;80.58;99750.81;3591836;39;20084;-46
2021/04/06 06:09:09;;;;;;;5.05;2.50;;;;;;;-0.22;80.14;99744.56;3592653;39;20056;-46
2021/04/06 06:12:00;;;;;;;5.22;2.10;;;;;;;-0.07;79.68;99758.78;3590283;39;20052;-46
2021/04/06 06:14:28;;;;;;;5.18;2.15;;;;;;;-0.04;78.79;99741.34;3590047;39;20083;-43
2021/04/06 06:16:55;;;;;;;7.55;2.42;;;;;;;0.06;78.72;99750.25;3588506;39;20137;-47
2021/04/06 06:19:22;;;;;;;8.25;3.20;;;;;;;0.36;78.04;99757.63;3592415;39;20065;-47
2021/04/06 06:21:52;;;;;;;5.18;1.98;;;;;;;0.35;77.39;99745.84;3588413;39;20080;-46
2021/04/06 06:24:33;;;;;;;7.13;2.55;;;;;;;0.42;77.59;99748.75;3588209;39;20043;-45
2021/04/06 06:27:00;;;;;;;4.57;2.63;;;;;;;0.65;77.24;99754.94;3589598;39;20048;-47
2021/04/06 06:29:42;;;;;;;5.03;2.42;;;;;;;0.82;75.48;99744.81;3586988;39;20071;-46
2021/04/06 06:32:21;;;;;;;5.53;2.70;;;;;;;0.97;75.68;99750.59;3590590;39;20067;-45
2021/04/06 06:35:09;;;;;;;6.85;1.60;;;;;;;1.16;73.71;99757.41;3593532;39;20087;-48
2021/04/06 06:37:36;;;;;;;5.93;2.15;;;;;;;1.23;73.39;99751.84;3592660;39;20067;-46
2021/04/06 06:40:05;;;;;;;5.57;1.90;;;;;;;2.14;71.27;99746.75;3593020;39;20055;-45
2021/04/06 06:42:36;;;;;;;4.32;1.92;;;;;;;2.96;67.94;99749.41;3589439;39;20133;-46
2021/04/06 06:45:23;;;;;;;5.38;2.42;;;;;;;3.41;65.76;99746.97;3587813;39;20056;-45
2021/04/06 06:47:55;;;;;;;5.00;2.35;;;;;;;4.09;62.70;99756.28;3586422;39;20060;-45
2021/04/06 06:50:49;;;;;;;4.57;2.13;;;;;;;4.73;61.96;99758.56;3585158;39;20085;-46
2021/04/06 06:53:33;;;;;;;5.43;2.08;;;;;;;4.98;60.23;99761.91;3586519;39;20044;-44
2021/04/06 06:56:03;;;;;;;3.83;1.77;;;;;;;5.66;57.13;99758.13;3587903;39;20082;-44
2021/04/06 06:58:35;;;;;;;4.90;1.90;;;;;;;6.50;54.24;99755.47;3589521;39;20048;-44
2021/04/06 07:01:03;;;;;;;4.38;2.38;;;;;;;6.48;54.74;99759.69;3591769;39;20052;-45
2021/04/06 07:03:35;;;;;;;7.78;2.45;;;;;;;6.81;53.57;99744.44;3591230;39;20060;-50
2021/04/06 07:06:22;;;;;;;6.43;2.38;;;;;;;7.79;50.86;99748.41;3592377;39;20087;-44
2021/04/06 07:08:53;;;;;;;2.45;1.70;;;;;;;8.36;48.21;99743.66;3592664;39;20121;-46
2021/04/06 07:11:21;;;;;;;4.25;2.10;;;;;;;6.86;52.55;99740.31;3592131;39;20043;-41
2021/04/06 07:13:53;;;;;;;4.75;1.70;;;;;;;8.17;49.79;99744.09;3590164;39;20043;-44
2021/04/06 07:16:21;;;;;;;4.47;1.98;;;;;;;7.35;51.64;99735.56;3591991;39;20047;-45
2021/04/06 07:18:49;;;;;;;4.93;1.77;;;;;;;8.95;47.52;99740.47;3591382;39;20573;-44
2021/04/06 07:21:19;;;;;;;5.35;1.88;;;;;;;8.56;47.23;99738.97;3589480;39;20362;-44
2021/04/06 07:23:59;;;;;;;6.00;1.80;;;;;;;8.93;47.94;99730.25;3592291;39;20345;-48
2021/04/06 07:26:29;;;;;;;5.63;2.42;;;;;;;8.93;45.62;99742.16;3592093;39;20047;-47
2021/04/06 07:28:57;;;;;;;3.72;2.00;;;;;;;8.71;47.75;99742.63;3590582;39;20056;-49
2021/04/06 07:31:25;;;;;;;7.97;2.33;;;;;;;8.75;47.83;99740.16;3590898;39;20062;-49
2021/04/06 07:33:55;;;;;;;2.65;1.77;;;;;;;7.96;48.63;99746.25;3589881;39;20801;-45
2021/04/06 07:36:27;;;;;;;5.70;1.80;;;;;;;7.83;49.58;99740.00;3593048;39;20058;-47
2021/04/06 07:39:07;;;;;;;6.18;1.95;;;;;;;7.00;51.86;99742.34;3593643;39;20043;-46
2021/04/06 07:41:43;;;;;;;4.20;2.20;;;;;;;5.68;56.74;99732.78;3593760;39;20063;-46
2021/04/06 07:44:14;;;;;;;4.85;2.03;;;;;;;5.35;58.46;99743.63;3593007;39;20103;-47
2021/04/06 07:46:43;;;;;;;3.10;2.00;;;;;;;5.15;58.74;99740.47;3592060;39;20153;-44
2021/04/06 07:49:22;;;;;;;4.47;1.92;;;;;;;4.65;60.82;99731.22;3593473;39;20039;-44
2021/04/06 07:51:54;;;;;;;12.38;2.53;;;;;;;4.34;62.41;99738.63;3589000;39;20052;-44
2021/04/06 07:54:23;;;;;;;7.90;2.50;;;;;;;4.44;62.94;99736.41;3592788;39;20080;-44
2021/04/06 07:57:05;;;;;;;7.93;2.85;;;;;;;4.07;64.02;99735.13;3587420;39;20108;-46
2021/04/06 07:59:32;;;;;;;8.18;2.22;;;;;;;4.42;63.72;99738.88;3588816;39;20059;-45
2021/04/06 08:02:01;;;;;;;8.75;1.95;;;;;;;4.15;63.55;99726.09;3592054;39;20145;-45
2021/04/06 08:04:37;;;;;;;5.32;2.20;;;;;;;3.97;64.19;99738.09;3590156;39;20320;-43
2021/04/06 08:07:20;;;;;;;5.40;1.73;;;;;;;4.45;62.44;99749.13;3592278;39;20772;-48
2021/04/06 08:09:53;;;;;;;4.72;2.38;;;;;;;5.07;62.45;99739.38;3589846;39;20055;-46
2021/04/06 08:12:38;;;;;;;3.97;1.92;;;;;;;5.13;61.79;99739.59;3591946;39;20052;-45
2021/04/06 08:15:32;;;;;;;5.40;2.65;;;;;;;5.62;60.27;99744.47;3592506;39;20314;-43
2021/04/06 08:18:01;;;;;;;5.30;2.30;;;;;;;5.55;61.07;99740.06;3587293;39;20072;-44
2021/04/06 08:20:45;;;;;;;4.57;1.98;;;;;;;5.72;59.23;99739.69;3587828;39;20048;-45
2021/04/06 08:23:39;;;;;;;6.28;2.58;;;;;;;5.47;60.08;99738.94;3592945;39;20070;-43
2021/04/06 08:26:27;;;;;;;8.27;2.55;;;;;;;6.01;57.99;99732.91;3593131;39;20405;-46
2021/04/06 08:28:55;;;;;;;6.18;2.35;;;;;;;5.93;59.05;99744.56;3592585;39;20059;-51
2021/04/06 08:31:28;;;;;;;4.78;2.47;;;;;;;5.95;57.65;99742.91;3592331;39;20354;-45
2021/04/06 08:34:15;;;;;;;4.38;2.13;;;;;;;5.49;58.62;99736.44;3596025;39;20048;-46
2021/04/06 08:36:41;;;;;;;5.82;2.85;;;;;;;5.27;60.90;99735.81;3590927;39;20051;-45
2021/04/06 08:39:08;;;;;;;7.95;2.17;;;;;;;5.14;60.39;99743.84;3588901;39;20064;-45
2021/04/06 08:41:36;;;;;;;4.65;2.63;;;;;;;5.58;60.88;99739.25;3591410;39;20818;-49
2021/04/06 08:44:06;;;;;;;5.75;2.72;;;;;;;5.46;60.08;99739.78;3590415;39;20102;-46
2021/04/06 08:46:48;;;;;;;7.90;2.70;;;;;;;5.15;59.85;99740.47;3590602;39;20059;-46
2021/04/06 08:49:25;;;;;;;6.18;2.90;;;;;;;4.70;61.52;99742.38;3591561;39;20051;-46
2021/04/06 09:03:36;;;;;;;4.40;2.25;;;;;;;5.27;62.24;99750.13;3584993;39;20664;-47
2021/04/06 09:06:12;;;;;;;7.20;2.47;;;;;;;5.01;62.58;99746.78;3578662;39;20049;-47
2021/04/06 09:09:05;;;;;;;6.50;2.35;;;;;;;5.25;62.14;99750.09;3583811;39;20409;-46
2021/04/06 09:11:32;;;;;;;6.28;2.78;;;;;;;5.55;60.93;99745.13;3580502;39;20359;-47
2021/04/06 09:13:59;;;;;;;6.45;2.90;;;;;;;5.29;61.74;99746.84;3580059;39;20083;-47
2021/04/06 09:16:28;;;;;;;7.22;2.75;;;;;;;5.49;61.60;99755.06;3581217;39;20088;-46
2021/04/06 09:18:59;;;;;;;7.05;3.17;;;;;;;4.97;63.06;99744.97;3581239;40;20067;-47
2021/04/06 09:21:29;;;;;;;7.70;3.10;;;;;;;5.71;60.73;99746.44;3580699;39;20069;-48
2021/04/06 09:23:58;;;;;;;9.05;2.55;;;;;;;5.57;60.26;99758.72;3580609;39;20061;-47
2021/04/06 09:26:25;;;;;;;9.82;2.72;;;;;;;5.66;60.33;99757.28;3581530;39;20107;-48
2021/04/06 09:29:06;;;;;;;6.32;2.70;;;;;;;4.92;62.86;99761.69;3581476;39;20061;-49
2021/04/06 09:31:36;;;;;;;6.78;3.35;;;;;;;4.94;63.87;99757.53;3580397;39;20110;-47
2021/04/06 09:34:13;;;;;;;9.07;3.10;;;;;;;4.76;64.51;99756.13;3583317;39;20056;-47
2021/04/06 09:36:42;;;;;;;6.03;3.17;;;;;;;4.84;63.54;99758.91;3578990;39;20041;-48
2021/04/06 09:39:12;;;;;;;13.80;4.03;;;;;;;5.01;63.61;99764.53;3580896;39;20068;-51
2021/04/06 09:41:41;;;;;;;7.47;3.05;;;;;;;4.96;62.50;99756.78;3582387;39;20298;-50
2021/04/06 09:44:14;;;;;;;11.82;3.40;;;;;;;5.77;61.78;99759.31;3578701;39;20098;-47
2021/04/06 09:46:44;;;;;;;10.50;3.83;;;;;;;5.72;61.72;99755.78;3580367;39;20771;-49
2021/04/06 09:49:12;;;;;;;9.07;3.40;;;;;;;5.06;62.67;99760.47;3579358;39;20146;-46
2021/04/06 09:51:57;;;;;;;8.00;4.00;;;;;;;4.87;64.17;99764.09;3581999;39;20056;-48
2021/04/06 09:54:29;;;;;;;9.13;3.65;;;;;;;5.31;61.88;99762.13;3581966;39;20450;-47
2021/04/06 09:56:58;;;;;;;11.30;3.80;;;;;;;4.77;62.90;99768.00;3582431;39;20063;-47
2021/04/06 09:59:25;;;;;;;13.00;3.90;;;;;;;4.91;63.26;99757.44;3580623;39;20060;-49
2021/04/06 10:01:55;;;;;;;15.20;5.32;;;;;;;5.19;62.46;99764.28;3582794;39;20092;-47
2021/04/06 10:04:46;;;;;;;7.70;3.33;;;;;;;5.93;59.35;99765.75;3574283;39;20056;-47
2021/04/06 10:07:21;;;;;;;7.07;2.60;;;;;;;5.19;60.79;99760.06;3573426;39;20065;-45
2021/04/06 10:09:58;;;;;;;8.97;3.07;;;;;;;6.17;60.59;99764.72;3573294;39;20089;-50
2021/04/06 10:12:28;;;;;;;6.85;2.75;;;;;;;5.96;58.96;99760.78;3573079;39;20085;-48
2021/04/06 10:14:55;;;;;;;8.13;2.63;;;;;;;5.95;58.90;99764.09;3573699;40;20060;-48
2021/04/06 10:17:33;;;;;;;7.28;3.10;;;;;;;6.15;58.24;99764.69;3574533;39;20093;-47
2021/04/06 10:20:07;;;;;;;12.27;3.70;;;;;;;6.43;58.82;99768.00;3575286;39;20057;-48
2021/04/06 10:22:46;;;;;;;10.65;3.63;;;;;;;6.67;58.52;99760.16;3576774;39;20080;-46
2021/04/06 10:25:17;;;;;;;8.23;3.20;;;;;;;9.07;51.15;99752.59;3574362;39;20053;-49
2021/04/06 10:27:50;;;;;;;4.90;2.60;;;;;;;10.39;46.95;99768.09;3573855;39;20048;-50
2021/04/06 10:30:26;;;;;;;7.40;2.88;;;;;;;12.85;41.73;99763.75;3574746;40;20071;-51
2021/04/06 10:33:15;;;;;;;4.70;2.60;;;;;;;14.56;37.01;99771.22;3575542;39;20041;-46
2021/04/06 10:35:45;;;;;;;6.18;2.42;;;;;;;13.78;37.76;99762.91;3571512;39;20088;-48
2021/04/06 10:38:21;;;;;;;7.38;3.03;;;;;;;11.25;42.42;99767.25;3572164;40;20044;-49
2021/04/06 10:41:18;;;;;;;8.52;3.05;;;;;;;9.50;44.55;99763.50;3573819;40;20080;-48
2021/04/06 10:43:47;;;;;;;8.40;2.97;;;;;;;8.21;48.28;99753.53;3574241;39;20072;-46
2021/04/06 10:46:16;;;;;;;8.50;3.05;;;;;;;7.53;51.51;99751.25;3574914;40;20087;-46
2021/04/06 10:48:46;;;;;;;5.90;3.00;;;;;;;9.96;48.34;99752.22;3574539;39;20051;-48
2021/04/06 10:51:24;;;;;;;5.65;3.05;;;;;;;11.62;42.23;99747.84;3573793;39;20073;-48
2021/04/06 10:53:54;;;;;;;10.50;3.03;;;;;;;13.58;38.37;99755.22;3573588;39;20301;-51
2021/04/06 10:56:25;;;;;;;6.40;2.65;;;;;;;11.30;41.94;99737.38;3574919;39;20345;-47
2021/04/06 10:58:52;;;;;;;7.47;3.08;;;;;;;11.01;43.00;99734.59;3575396;39;20076;-46
2021/04/06 11:01:26;;;;;;;5.53;2.55;;;;;;;12.84;39.34;99734.63;3574233;40;20064;-49
2021/04/06 11:03:56;;;;;;;11.23;2.65;;;;;;;13.98;36.33;99732.81;3574191;40;20089;-47
2021/04/06 11:06:27;;;;;;;8.68;2.65;;;;;;;16.15;33.52;99727.69;3574032;39;20068;-49
2021/04/06 11:08:55;;;;;;;9.77;2.88;;;;;;;16.04;31.56;99733.84;3573868;40;20603;-47
2021/04/06 11:11:30;;;;;;;8.07;2.03;;;;;;;17.55;30.10;99733.31;3573893;40;20061;-47
2021/04/06 11:13:59;;;;;;;6.05;2.30;;;;;;;15.42;32.00;99709.53;3573895;39;20053;-47
2021/04/06 11:16:26;;;;;;;5.57;2.50;;;;;;;14.48;35.22;99711.16;3574784;39;20063;-48
2021/04/06 11:19:09;;;;;;;6.28;2.20;;;;;;;15.02;33.90;99709.03;3573860;39;20053;-51
2021/04/06 11:21:39;;;;;;;6.43;2.38;;;;;;;13.35;36.75;99694.38;3573928;39;20105;-49
2021/04/06 11:24:07;;;;;;;3.85;1.92;;;;;;;13.64;36.49;99699.47;3573419;39;20052;-48
2021/04/06 11:26:34;;;;;;;5.88;2.35;;;;;;;10.97;40.91;99689.31;3569269;40;20045;-47
2021/04/06 11:29:02;;;;;;;7.28;2.40;;;;;;;10.57;42.87;99693.22;3573318;39;20067;-51
2021/04/06 11:31:29;;;;;;;9.10;2.60;;;;;;;12.83;39.05;99690.97;3572871;40;20097;-47
2021/04/06 11:33:55;;;;;;;5.63;2.10;;;;;;;14.10;38.22;99693.31;3574077;40;20064;-47
2021/04/06 11:36:22;;;;;;;6.78;2.53;;;;;;;15.59;35.65;99695.63;3574099;40;20402;-50
2021/04/06 11:38:49;;;;;;;7.63;2.85;;;;;;;15.50;35.81;99694.84;3574217;40;20068;-48
2021/04/06 11:41:18;;;;;;;6.55;2.20;;;;;;;17.69;33.25;99694.22;3573769;39;20079;-48
2021/04/06 11:43:46;;;;;;;5.18;2.33;;;;;;;17.10;33.74;99687.53;3573387;39;20064;-45
2021/04/06 11:46:14;;;;;;;5.20;1.90;;;;;;;19.94;29.85;99694.09;3573824;40;20407;-49
2021/04/06 11:48:41;;;;;;;6.78;2.10;;;;;;;18.21;30.60;99682.84;3573861;39;20061;-50
2021/04/06 11:51:10;;;;;;;4.93;2.22;;;;;;;19.08;30.65;99691.16;3573385;39;20149;-49
2021/04/06 11:53:36;;;;;;;4.90;2.55;;;;;;;20.51;26.89;99685.47;3575256;39;20705;-52
2021/04/06 11:56:03;;;;;;;4.18;2.30;;;;;;;20.60;26.88;99681.72;3573601;39;20119;-47
2021/04/06 11:58:30;;;;;;;5.85;2.42;;;;;;;19.97;26.79;99662.84;3573512;40;20839;-45
2021/04/06 12:01:16;;;;;;;;;;;;;;;16.57;31.66;99669.41;3573177;40;20069;-49
2021/04/06 12:03:43;;;;;;;;;;;;;;;13.82;36.13;99664.25;3574033;40;19973;-49
2021/04/06 12:06:09;;;;;;;4.43;2.08;;;;;;;12.03;39.95;99654.03;3573863;39;20246;-48
2021/04/06 12:08:36;;;;;;;6.82;2.28;;;;;;;9.65;44.86;99661.47;3574370;40;20331;-49